BIKFCYFB

Guest
Details From BIKF - Keflavik Nas
To CYFB - Iqaluit
Flight Number -
Tags Generated
Created
Modified
Stats Distance 1,191 nm / 2,205 km
Max Altitude 0 ft / 0 m
Waypoints 3
Social Downloads 3
Likes 0
Share VATSIM

Download

Looking for another format? Having issues loading an existing format? Contact us
Advertisement - Login to hide

Notes

Generated

Route

BIKF YFB CYFB

ID Type Via Altitude Latitude Longitude Leg Dist Tot Dist Heading (true) Name
O BIKF APT - 0 ft / 0 m 63.96448˚ -22.60545˚ - 0 nm - -
YFB VOR - 0 ft / 0 m 63.74167˚ -68.47333˚ 1187 nm 1187 nm 290° / 249° FROBAY VOR
O CYFB APT - 0 ft / 0 m 63.76497˚ -68.57398˚ 3 nm 1190 nm 298° / 298° -

Altitude Profile

Advertisement - Login to hide

Weather


0- 5 10 15 20 25 30 35+ Temperature / ° C

Clouds and Precipitation
Forecast for 2017-12-11 18:00 UTC. Updated 30 minutes ago

Ground ~20,000 ft ~40,000 ft Winds

BIKF

Details ICAO BIKF (KEF)
Name Keflavik
Region Iceland
Timezone Atlantic/Reykjavik (UTC+0.0)
Stats Elevation 170 ft / 52 m (AMSL)
Location 63.981612° -22.614563°
Runways 2
Magnetic Variation 14.070° W

METAR

BIKF 111530Z 10012KT CAVOK M02/M04 Q0998 R19/390055

Decode

TAF

TAF BIKF 111336Z 1115/1215 12017KT 9999 SCT025 BKN045 TX04/1205Z TNM02/1115Z BECMG 1118/1120 14022G32KT PROB40 TEMPO 1120/1122 3000 -SNRA OVC012 BECMG 1121/1123 14032G42KT 5000 RA BKN013 OVC020 FM120540 17012KT 9999 SHRA SCT015 BKN025

Decode

Departure Runways

ID Width Length Bearing (true) Bearing (mag) Surface Threshold Offset Overrun Length
02 197 ft / 60 m 9,997 ft / 3,047 m 0.02° 14.09° Asphalt 0 ft / 0 m 492 ft / 150 m
11 197 ft / 60 m 10,022 ft / 3,055 m 89.97° 104.04° Asphalt 0 ft / 0 m 246 ft / 75 m
20 197 ft / 60 m 9,997 ft / 3,047 m 180.02° 194.09° Asphalt 0 ft / 0 m 98 ft / 30 m
29 197 ft / 60 m 10,022 ft / 3,055 m 270.02° 284.09° Asphalt 0 ft / 0 m 197 ft / 60 m

CYFB

Details ICAO CYFB (YFB)
Name Iqaluit
Region Canada
Timezone America/Iqaluit (UTC-5.0)
Stats Elevation 110 ft / 34 m (AMSL)
Location 63.756565° -68.556058°
Runways 1
Magnetic Variation 27.546° W

METAR

CYFB 111500Z 32015KT 30SM DRSN FEW017 FEW030 M21/M24 A2941 RMK SF1SC1 SF TR SLP966

Decode

TAF

TAF TAF CYFB 111138Z 1112/1212 32010KT P6SM FEW030 TEMPO 1112/1116 4SM IC BKN020 FM111600 32006KT P6SM BKN030 TEMPO 1116/1124 4SM -SN OVC020 FM120000 32006KT P6SM -SN BKN025 TEMPO 1200/1212 4SM -SN OVC015 RMK NXT FCST BY 111800Z

Decode

Destination Runways

ID Width Length Bearing (true) Bearing (mag) Surface Threshold Offset Overrun Length
17 200 ft / 61 m 8,605 ft / 2,623 m 135.58° 163.13° Asphalt 0 ft / 0 m 210 ft / 64 m
35 200 ft / 61 m 8,605 ft / 2,623 m 315.62° 343.17° Asphalt 0 ft / 0 m 243 ft / 74 m

Popular Alternatives